Time;durP1;ratioP1;P1;durP2;ratioP2;P2;SDS_P1;SDS_P2;PMS_P1;PMS_P2;Temp;Humidity;BMP_temperature;BMP_pressure;BME280_temperature;BME280_humidity;BME280_pressure;Samples;Min_cycle;Max_cycle;Signal;HPM_P1;HPM_P2
2021/10/24 00:00:19;;;;;;;66.95;38.85;;;;;;;;;;5072411;28;20117;-64
2021/10/24 00:02:46;;;;;;;46.78;26.55;;;;;;;;;;5072386;28;20029;-64
2021/10/24 00:05:13;;;;;;;29.40;13.30;;;;;;;;;;5072542;28;20031;-64
2021/10/24 00:07:39;;;;;;;25.17;12.30;;;;;;;;;;5071960;28;20086;-63
2021/10/24 00:10:05;;;;;;;23.67;12.88;;;;;;;;;;5072236;28;20506;-64
2021/10/24 00:12:31;;;;;;;27.77;12.95;;;;;;;;;;5071989;28;20032;-63
2021/10/24 00:14:57;;;;;;;23.52;11.73;;;;;;;;;;5072100;28;20028;-64
2021/10/24 00:17:23;;;;;;;31.83;15.27;;;;;;;;;;5071983;28;20020;-64
2021/10/24 00:19:49;;;;;;;31.05;15.98;;;;;;;;;;5071973;28;20078;-64
2021/10/24 00:22:16;;;;;;;33.90;16.48;;;;;;;;;;5071753;28;20089;-64
2021/10/24 00:24:42;;;;;;;31.63;14.90;;;;;;;;;;5072094;28;20024;-64
2021/10/24 00:27:08;;;;;;;31.30;15.68;;;;;;;;;;5071630;28;20017;-64
2021/10/24 00:29:34;;;;;;;32.60;14.57;;;;;;;;;;5071886;28;20020;-64
2021/10/24 00:32:00;;;;;;;29.45;14.05;;;;;;;;;;5071845;28;20020;-64
2021/10/24 00:34:26;;;;;;;26.77;13.35;;;;;;;;;;5071904;28;20027;-64
2021/10/24 00:36:52;;;;;;;28.33;13.73;;;;;;;;;;5071703;28;20020;-63
2021/10/24 00:39:18;;;;;;;27.20;13.45;;;;;;;;;;5071894;28;20364;-64
2021/10/24 00:41:45;;;;;;;29.63;15.05;;;;;;;;;;5071519;28;20115;-64
2021/10/24 00:44:24;;;;;;;23.83;11.95;;;;;;;;;;5071634;28;20021;-64
2021/10/24 00:46:51;;;;;;;26.27;11.80;;;;;;;;;;5071336;28;20024;-64
2021/10/24 00:49:18;;;;;;;28.67;13.45;;;;;;;;;;5071482;28;20082;-64
2021/10/24 00:51:44;;;;;;;29.65;13.57;;;;;;;;;;5071326;28;20016;-64
2021/10/24 00:54:12;;;;;;;25.65;13.40;;;;;;;;;;5071346;28;20024;-64
2021/10/24 00:56:40;;;;;;;28.20;14.15;;;;;;;;;;5071229;28;20027;-64
2021/10/24 00:59:07;;;;;;;28.27;13.65;;;;;;;;;;5071181;28;20480;-64
2021/10/24 01:01:33;;;;;;;23.73;12.65;;;;;;;;;;5071265;28;20025;-64
2021/10/24 01:03:59;;;;;;;26.85;12.88;;;;;;;;;;5071136;28;20467;-64
2021/10/24 01:06:25;;;;;;;25.08;12.73;;;;;;;;;;5070920;28;20035;-64
2021/10/24 01:08:51;;;;;;;24.98;13.38;;;;;;;;;;5070882;28;20091;-64
2021/10/24 01:11:17;;;;;;;30.27;14.90;;;;;;;;;;5071175;28;20360;-66
2021/10/24 01:13:44;;;;;;;25.80;13.38;;;;;;;;;;5070942;28;20123;-64
2021/10/24 01:16:10;;;;;;;25.05;13.38;;;;;;;;;;5070773;28;20025;-64
2021/10/24 01:18:36;;;;;;;26.17;13.27;;;;;;;;;;5070904;28;20032;-64
2021/10/24 01:21:02;;;;;;;29.38;14.25;;;;;;;;;;5070632;28;20086;-64
2021/10/24 01:23:28;;;;;;;24.70;12.38;;;;;;;;;;5070671;28;20025;-64
2021/10/24 01:25:54;;;;;;;26.45;13.77;;;;;;;;;;5070464;28;20082;-64
2021/10/24 01:28:20;;;;;;;25.77;12.65;;;;;;;;;;5070753;28;20027;-64
2021/10/24 01:30:46;;;;;;;27.52;12.98;;;;;;;;;;5070702;28;20040;-64
2021/10/24 01:33:13;;;;;;;26.02;13.30;;;;;;;;;;5070615;28;20097;-64
2021/10/24 01:35:55;;;;;;;31.17;12.68;;;;;;;;;;5070381;28;20437;-64
2021/10/24 01:38:22;;;;;;;25.67;12.60;;;;;;;;;;5070434;28;20031;-64
2021/10/24 01:40:48;;;;;;;26.75;12.60;;;;;;;;;;5070477;28;20078;-64
2021/10/24 01:43:15;;;;;;;28.33;11.75;;;;;;;;;;5069657;28;20052;-64
2021/10/24 01:45:41;;;;;;;24.90;12.27;;;;;;;;;;5070093;28;20024;-64
2021/10/24 01:48:07;;;;;;;25.63;12.40;;;;;;;;;;5070235;28;20025;-64
2021/10/24 01:50:33;;;;;;;27.55;12.93;;;;;;;;;;5069995;28;20025;-64
2021/10/24 01:52:59;;;;;;;30.20;11.82;;;;;;;;;;5070109;28;20028;-64
2021/10/24 01:55:25;;;;;;;27.08;12.50;;;;;;;;;;5069985;28;20029;-64
2021/10/24 01:57:53;;;;;;;35.08;14.30;;;;;;;;;;5069900;28;20472;-64
2021/10/24 02:00:19;;;;;;;25.58;12.25;;;;;;;;;;5070203;28;20029;-64
2021/10/24 02:02:46;;;;;;;187.15;117.97;;;;;;;;;;5069936;28;20185;-63
2021/10/24 02:05:12;;;;;;;37.15;21.55;;;;;;;;;;5069975;28;20028;-65
2021/10/24 02:07:38;;;;;;;27.40;12.18;;;;;;;;;;5069798;28;20021;-64
2021/10/24 02:10:05;;;;;;;23.15;11.18;;;;;;;;;;5069792;28;20028;-64
2021/10/24 02:12:32;;;;;;;27.30;11.10;;;;;;;;;;5069703;28;20100;-65
2021/10/24 02:14:58;;;;;;;24.27;11.32;;;;;;;;;;5069816;28;20115;-64
2021/10/24 02:17:24;;;;;;;22.55;10.60;;;;;;;;;;5069377;28;20029;-64
2021/10/24 02:19:50;;;;;;;23.38;11.10;;;;;;;;;;5069609;28;20094;-64
2021/10/24 02:22:16;;;;;;;22.33;10.75;;;;;;;;;;5069593;28;20442;-64
2021/10/24 02:24:42;;;;;;;23.88;11.43;;;;;;;;;;5069728;28;20086;-64
2021/10/24 02:27:09;;;;;;;25.75;12.07;;;;;;;;;;5069374;28;20031;-64
2021/10/24 02:29:36;;;;;;;30.98;11.93;;;;;;;;;;5069842;28;20366;-64
2021/10/24 02:32:02;;;;;;;23.65;11.60;;;;;;;;;;5069542;28;20495;-64
2021/10/24 02:34:28;;;;;;;24.20;11.95;;;;;;;;;;5069326;28;20055;-64
2021/10/24 02:36:54;;;;;;;22.58;12.13;;;;;;;;;;5069184;28;20028;-64
2021/10/24 02:39:20;;;;;;;23.85;10.95;;;;;;;;;;5069432;28;20025;-64
2021/10/24 02:41:47;;;;;;;25.45;12.15;;;;;;;;;;5069222;28;20028;-64
2021/10/24 02:44:13;;;;;;;24.98;11.45;;;;;;;;;;5069461;28;20024;-64
2021/10/24 02:46:39;;;;;;;24.85;10.85;;;;;;;;;;5069268;28;20457;-64
2021/10/24 02:49:05;;;;;;;22.65;11.27;;;;;;;;;;5069239;28;20115;-63
2021/10/24 02:51:31;;;;;;;25.67;11.65;;;;;;;;;;5069301;28;20025;-64
2021/10/24 02:53:57;;;;;;;22.60;10.88;;;;;;;;;;5069201;28;20385;-62
2021/10/24 02:56:23;;;;;;;23.35;10.40;;;;;;;;;;5069221;28;20028;-64
2021/10/24 02:58:50;;;;;;;24.65;11.07;;;;;;;;;;5068914;28;20031;-65
2021/10/24 03:01:16;;;;;;;23.17;11.40;;;;;;;;;;5069241;28;20035;-64
2021/10/24 03:03:42;;;;;;;24.40;10.63;;;;;;;;;;5069001;28;20484;-63
2021/10/24 03:06:08;;;;;;;26.67;11.50;;;;;;;;;;5069005;28;20023;-64
2021/10/24 03:08:34;;;;;;;23.20;11.13;;;;;;;;;;5069120;28;20025;-64
2021/10/24 03:11:00;;;;;;;25.08;12.23;;;;;;;;;;5068999;28;20124;-64
2021/10/24 03:13:26;;;;;;;23.83;11.25;;;;;;;;;;5069087;28;20021;-64
2021/10/24 03:15:55;;;;;;;22.80;10.70;;;;;;;;;;5068719;28;20503;-64
2021/10/24 03:18:22;;;;;;;23.17;11.35;;;;;;;;;;5069054;28;20051;-65
2021/10/24 03:20:48;;;;;;;25.38;11.43;;;;;;;;;;5069110;28;20025;-64
2021/10/24 03:23:14;;;;;;;22.73;10.73;;;;;;;;;;5069030;28;20059;-63
2021/10/24 03:25:40;;;;;;;26.80;11.65;;;;;;;;;;5069025;28;20024;-64
2021/10/24 03:28:06;;;;;;;24.80;11.43;;;;;;;;;;5069201;28;20174;-64
2021/10/24 03:30:32;;;;;;;22.55;11.25;;;;;;;;;;5068815;28;20056;-64
2021/10/24 03:32:59;;;;;;;23.67;10.68;;;;;;;;;;5068831;28;20111;-63
2021/10/24 03:35:25;;;;;;;25.80;11.52;;;;;;;;;;5069104;28;20028;-64
2021/10/24 03:37:51;;;;;;;23.23;11.07;;;;;;;;;;5068633;28;20024;-64
2021/10/24 03:40:17;;;;;;;24.83;10.63;;;;;;;;;;5068570;28;20467;-64
2021/10/24 03:42:43;;;;;;;24.20;10.60;;;;;;;;;;5068591;28;20024;-64
2021/10/24 03:45:10;;;;;;;23.30;11.73;;;;;;;;;;5068735;28;20033;-64
2021/10/24 03:47:36;;;;;;;26.55;10.82;;;;;;;;;;5069972;28;20063;-64
2021/10/24 03:50:03;;;;;;;26.13;11.63;;;;;;;;;;5068853;28;20074;-64
2021/10/24 03:52:29;;;;;;;24.00;10.85;;;;;;;;;;5068584;28;20530;-64
2021/10/24 03:54:55;;;;;;;24.55;10.65;;;;;;;;;;5068602;28;20024;-64
2021/10/24 03:57:21;;;;;;;25.08;10.82;;;;;;;;;;5068642;28;20042;-65
2021/10/24 03:59:47;;;;;;;24.40;11.32;;;;;;;;;;5068753;28;20025;-65
2021/10/24 04:02:13;;;;;;;25.05;11.32;;;;;;;;;;5068744;28;20016;-64
2021/10/24 04:04:41;;;;;;;24.02;10.50;;;;;;;;;;5068910;28;20393;-63
2021/10/24 04:07:07;;;;;;;23.77;11.00;;;;;;;;;;5070373;28;20531;-65
2021/10/24 04:09:33;;;;;;;26.98;13.93;;;;;;;;;;5072362;28;20117;-64
2021/10/24 04:11:59;;;;;;;24.92;10.85;;;;;;;;;;5073602;28;20033;-63
2021/10/24 04:14:25;;;;;;;22.95;11.25;;;;;;;;;;5072243;28;20177;-64
2021/10/24 04:16:52;;;;;;;25.38;11.82;;;;;;;;;;5072081;28;20032;-64
2021/10/24 04:19:18;;;;;;;26.10;12.35;;;;;;;;;;5072143;28;20032;-64
2021/10/24 04:21:44;;;;;;;23.67;11.40;;;;;;;;;;5071863;28;20024;-64
2021/10/24 04:24:10;;;;;;;22.85;11.27;;;;;;;;;;5072201;28;20027;-64
2021/10/24 04:26:36;;;;;;;23.23;10.18;;;;;;;;;;5071856;28;20048;-64
2021/10/24 04:29:03;;;;;;;23.88;10.88;;;;;;;;;;5071964;28;20020;-64
2021/10/24 04:31:29;;;;;;;26.15;10.88;;;;;;;;;;5071803;28;20028;-64
2021/10/24 04:33:56;;;;;;;25.88;12.70;;;;;;;;;;5071913;28;20032;-63
2021/10/24 04:36:22;;;;;;;25.40;11.40;;;;;;;;;;5071651;28;20163;-64
2021/10/24 04:38:48;;;;;;;23.15;11.25;;;;;;;;;;5072124;28;20024;-64
2021/10/24 04:41:14;;;;;;;24.65;12.07;;;;;;;;;;5071642;28;20260;-64
2021/10/24 04:43:40;;;;;;;25.45;10.93;;;;;;;;;;5071545;28;20066;-64
2021/10/24 04:46:06;;;;;;;25.73;10.75;;;;;;;;;;5071648;28;20025;-63
2021/10/24 04:48:32;;;;;;;24.88;10.45;;;;;;;;;;5072034;28;20107;-63
2021/10/24 04:50:58;;;;;;;23.23;11.32;;;;;;;;;;5071632;28;20021;-65
2021/10/24 04:53:25;;;;;;;23.58;10.38;;;;;;;;;;5071608;28;20032;-64
2021/10/24 04:55:51;;;;;;;23.55;12.05;;;;;;;;;;5071466;28;20036;-64
2021/10/24 04:58:17;;;;;;;27.40;12.65;;;;;;;;;;5071644;28;20162;-64
2021/10/24 05:00:43;;;;;;;25.67;11.05;;;;;;;;;;5071407;28;20062;-65
2021/10/24 05:03:09;;;;;;;25.15;11.60;;;;;;;;;;5071508;28;20029;-65
2021/10/24 05:05:35;;;;;;;25.67;10.95;;;;;;;;;;5071266;28;20024;-63
2021/10/24 05:08:01;;;;;;;29.65;12.40;;;;;;;;;;5071333;28;20063;-64
2021/10/24 05:10:27;;;;;;;24.98;11.82;;;;;;;;;;5071620;28;20025;-66
2021/10/24 05:12:53;;;;;;;21.90;10.45;;;;;;;;;;5098669;22;20046;-68
2021/10/24 05:15:21;;;;;;;25.95;11.90;;;;;;;;;;5076097;28;20020;-68
2021/10/24 05:17:47;;;;;;;26.03;12.07;;;;;;;;;;5074590;28;20028;-68
2021/10/24 05:20:13;;;;;;;23.85;11.05;;;;;;;;;;5075738;28;20027;-68
2021/10/24 05:22:39;;;;;;;23.75;11.45;;;;;;;;;;5075700;28;20025;-68
2021/10/24 05:25:06;;;;;;;27.90;11.23;;;;;;;;;;5093777;28;20024;-68
2021/10/24 05:27:33;;;;;;;26.15;11.57;;;;;;;;;;5074839;28;20238;-69
2021/10/24 05:29:59;;;;;;;26.10;11.15;;;;;;;;;;5075581;28;20040;-67
2021/10/24 05:32:25;;;;;;;23.02;11.25;;;;;;;;;;5093815;28;20387;-68
2021/10/24 05:34:51;;;;;;;25.52;11.77;;;;;;;;;;5093561;28;20024;-68
2021/10/24 05:37:17;;;;;;;25.13;10.50;;;;;;;;;;5093388;28;20026;-68
2021/10/24 05:39:43;;;;;;;22.75;10.07;;;;;;;;;;5093599;28;20482;-68
2021/10/24 05:42:09;;;;;;;25.60;12.13;;;;;;;;;;5075115;28;20031;-69
2021/10/24 05:44:34;;;;;;;26.25;11.20;;;;;;;;;;5093490;28;20095;-68
2021/10/24 05:47:00;;;;;;;24.35;11.85;;;;;;;;;;5075211;28;20417;-68
2021/10/24 05:49:26;;;;;;;24.67;11.57;;;;;;;;;;5075325;28;20054;-68
2021/10/24 05:51:53;;;;;;;25.52;12.27;;;;;;;;;;5075111;28;20077;-69
2021/10/24 05:54:20;;;;;;;27.10;12.40;;;;;;;;;;5093290;28;20016;-68
2021/10/24 05:56:46;;;;;;;23.70;11.57;;;;;;;;;;5093028;28;20467;-69
2021/10/24 05:59:11;;;;;;;26.25;12.82;;;;;;;;;;5092909;28;20479;-69
2021/10/24 06:01:37;;;;;;;24.15;12.48;;;;;;;;;;5093149;28;20016;-68
2021/10/24 06:04:04;;;;;;;23.50;10.85;;;;;;;;;;5074815;28;20463;-68
2021/10/24 06:06:30;;;;;;;25.02;12.10;;;;;;;;;;5092760;28;20024;-69
2021/10/24 06:08:56;;;;;;;24.13;12.13;;;;;;;;;;5074749;28;20016;-69
2021/10/24 06:11:46;;;;;;;22.45;11.25;;;;;;;;;;5074449;28;20031;-69
2021/10/24 06:14:12;;;;;;;23.85;11.57;;;;;;;;;;5093001;28;20040;-68
2021/10/24 06:16:38;;;;;;;23.38;11.20;;;;;;;;;;5092547;28;20157;-69
2021/10/24 06:19:04;;;;;;;23.60;10.50;;;;;;;;;;5074603;28;20507;-67
2021/10/24 06:21:30;;;;;;;23.58;10.85;;;;;;;;;;5092795;28;20050;-68
2021/10/24 06:23:56;;;;;;;26.48;10.70;;;;;;;;;;5074614;28;20011;-69
2021/10/24 06:26:22;;;;;;;25.15;10.68;;;;;;;;;;5092449;28;20027;-69
2021/10/24 06:28:48;;;;;;;27.27;12.20;;;;;;;;;;5074256;28;20016;-69
2021/10/24 06:31:14;;;;;;;22.95;10.77;;;;;;;;;;5074254;28;20103;-69
2021/10/24 06:33:40;;;;;;;24.00;10.48;;;;;;;;;;5074446;28;20024;-69
2021/10/24 06:36:06;;;;;;;27.52;11.75;;;;;;;;;;5074045;28;20078;-69
2021/10/24 06:38:32;;;;;;;24.10;11.20;;;;;;;;;;5092604;28;20109;-69
2021/10/24 06:40:58;;;;;;;24.88;10.95;;;;;;;;;;5092449;28;20478;-68
2021/10/24 06:43:24;;;;;;;22.60;9.93;;;;;;;;;;5092121;28;20413;-69
2021/10/24 06:45:50;;;;;;;23.33;11.23;;;;;;;;;;5074168;28;20073;-69
2021/10/24 06:48:16;;;;;;;23.92;11.77;;;;;;;;;;5092373;28;20432;-68
2021/10/24 06:50:42;;;;;;;25.88;11.15;;;;;;;;;;5092211;28;20043;-69
2021/10/24 06:53:08;;;;;;;25.40;11.48;;;;;;;;;;5074195;28;20158;-68
2021/10/24 06:55:34;;;;;;;23.92;10.73;;;;;;;;;;5091855;28;20466;-67
2021/10/24 06:58:00;;;;;;;25.25;11.23;;;;;;;;;;5092203;28;20479;-68
2021/10/24 07:00:28;;;;;;;23.42;10.57;;;;;;;;;;5092084;28;20056;-69
2021/10/24 07:02:54;;;;;;;24.45;11.18;;;;;;;;;;5091990;28;20016;-68
2021/10/24 07:05:21;;;;;;;23.55;9.98;;;;;;;;;;5073846;28;20068;-69
2021/10/24 07:07:47;;;;;;;26.08;11.68;;;;;;;;;;5091896;28;20091;-68
2021/10/24 07:10:13;;;;;;;24.52;11.27;;;;;;;;;;5092032;28;20024;-69
2021/10/24 07:12:39;;;;;;;30.08;12.27;;;;;;;;;;5073601;28;20104;-68
2021/10/24 07:15:06;;;;;;;22.35;10.50;;;;;;;;;;5073915;28;20020;-68
2021/10/24 07:17:32;;;;;;;24.23;11.32;;;;;;;;;;5091670;28;20073;-68
2021/10/24 07:19:58;;;;;;;26.00;12.27;;;;;;;;;;5091869;28;20112;-69
2021/10/24 07:22:24;;;;;;;26.98;11.93;;;;;;;;;;5073640;28;20016;-68
2021/10/24 07:24:50;;;;;;;24.45;10.90;;;;;;;;;;5091918;28;20344;-69
2021/10/24 07:27:17;;;;;;;21.45;10.15;;;;;;;;;;5091665;28;20372;-67
2021/10/24 07:29:43;;;;;;;22.75;11.32;;;;;;;;;;5073780;28;20419;-68
2021/10/24 07:32:09;;;;;;;24.73;11.20;;;;;;;;;;5073571;28;20035;-68
2021/10/24 07:34:35;;;;;;;23.02;9.95;;;;;;;;;;5073731;28;20372;-68
2021/10/24 07:37:01;;;;;;;27.38;13.18;;;;;;;;;;5091363;28;20024;-69
2021/10/24 07:39:27;;;;;;;20.52;9.68;;;;;;;;;;5091693;28;20032;-69
2021/10/24 07:41:53;;;;;;;21.67;9.50;;;;;;;;;;5093126;28;20070;-69
2021/10/24 07:44:19;;;;;;;26.33;12.63;;;;;;;;;;5077570;28;20016;-69
2021/10/24 07:46:46;;;;;;;22.92;10.38;;;;;;;;;;5077058;28;20027;-68
2021/10/24 07:49:13;;;;;;;21.13;10.40;;;;;;;;;;5077323;28;20048;-68
2021/10/24 07:51:39;;;;;;;22.15;9.70;;;;;;;;;;5095500;28;20137;-68
2021/10/24 07:54:05;;;;;;;23.27;11.20;;;;;;;;;;5095347;28;20046;-68
2021/10/24 07:56:36;;;;;;;21.27;10.10;;;;;;;;;;5095268;28;20077;-69
2021/10/24 07:59:03;;;;;;;23.92;11.90;;;;;;;;;;5077260;28;20020;-68
2021/10/24 08:01:29;;;;;;;25.85;11.95;;;;;;;;;;5095442;28;20020;-69
2021/10/24 08:03:55;;;;;;;25.20;10.85;;;;;;;;;;5076952;28;20113;-69
2021/10/24 08:06:22;;;;;;;23.20;10.85;;;;;;;;;;5076844;28;20076;-68
2021/10/24 08:08:49;;;;;;;21.20;9.73;;;;;;;;;;5074200;28;20181;-65
2021/10/24 08:11:15;;;;;;;22.83;10.52;;;;;;;;;;5088441;28;20020;-65
2021/10/24 08:13:41;;;;;;;23.25;10.48;;;;;;;;;;5056527;28;20028;-64
2021/10/24 08:16:07;;;;;;;25.10;10.75;;;;;;;;;;5074155;28;20031;-65
2021/10/24 08:18:33;;;;;;;21.52;10.50;;;;;;;;;;5088227;28;20472;-66
2021/10/24 08:20:59;;;;;;;23.88;10.30;;;;;;;;;;5076675;28;20016;-65
2021/10/24 08:23:27;;;;;;;26.17;10.13;;;;;;;;;;5094522;28;20024;-65
2021/10/24 08:25:53;;;;;;;21.92;9.10;;;;;;;;;;5072376;28;20486;-65
2021/10/24 08:28:20;;;;;;;20.92;9.07;;;;;;;;;;5073891;28;20063;-65
2021/10/24 08:30:48;;;;;;;20.08;9.50;;;;;;;;;;5056104;28;20506;-65
2021/10/24 08:33:14;;;;;;;22.85;9.82;;;;;;;;;;5074332;28;20526;-65
2021/10/24 08:35:40;;;;;;;20.45;10.15;;;;;;;;;;5067506;28;20035;-65
2021/10/24 08:38:06;;;;;;;20.42;9.40;;;;;;;;;;5071631;28;20082;-65
2021/10/24 08:40:32;;;;;;;23.63;10.90;;;;;;;;;;5083327;28;20093;-65
2021/10/24 08:43:03;;;;;;;19.33;8.73;;;;;;;;;;5072605;28;20024;-65
2021/10/24 08:45:29;;;;;;;21.15;8.93;;;;;;;;;;5074621;28;20046;-65
2021/10/24 08:47:56;;;;;;;19.92;8.50;;;;;;;;;;5075203;28;20093;-66
2021/10/24 08:50:22;;;;;;;22.83;9.02;;;;;;;;;;5093710;28;20020;-65
2021/10/24 08:52:51;;;;;;;23.42;9.13;;;;;;;;;;5075594;28;20047;-65
2021/10/24 08:55:17;;;;;;;19.42;9.15;;;;;;;;;;5071882;28;20051;-67
2021/10/24 08:57:47;;;;;;;20.02;8.88;;;;;;;;;;5071260;28;20100;-67
2021/10/24 09:00:13;;;;;;;20.83;9.10;;;;;;;;;;5093996;28;20471;-66
2021/10/24 09:02:57;;;;;;;22.50;8.48;;;;;;;;;;5063834;28;20206;-65
2021/10/24 09:05:34;;;;;;;20.95;8.55;;;;;;;;;;5075452;28;20107;-66
2021/10/24 09:08:00;;;;;;;21.58;8.98;;;;;;;;;;5074807;28;20488;-66
2021/10/24 09:10:36;;;;;;;21.60;9.65;;;;;;;;;;5075556;28;20081;-66
2021/10/24 09:13:06;;;;;;;21.33;9.30;;;;;;;;;;5075087;28;20040;-66
2021/10/24 09:15:44;;;;;;;22.90;9.55;;;;;;;;;;5074920;28;20070;-65
2021/10/24 09:18:11;;;;;;;20.63;10.10;;;;;;;;;;5075570;28;20027;-66
2021/10/24 09:20:37;;;;;;;20.67;8.68;;;;;;;;;;5075059;28;20112;-66
2021/10/24 09:23:07;;;;;;;19.73;9.23;;;;;;;;;;5074886;28;20323;-66
2021/10/24 09:25:33;;;;;;;21.83;8.77;;;;;;;;;;5074740;28;20107;-65
2021/10/24 09:28:00;;;;;;;18.85;8.80;;;;;;;;;;5075055;28;20027;-66
2021/10/24 09:30:27;;;;;;;21.63;9.40;;;;;;;;;;5074898;28;20117;-65
2021/10/24 09:32:59;;;;;;;19.35;8.00;;;;;;;;;;5074885;28;20028;-65
2021/10/24 09:35:33;;;;;;;19.77;8.48;;;;;;;;;;5074907;28;20401;-66
2021/10/24 09:38:00;;;;;;;19.88;8.63;;;;;;;;;;5074749;28;20456;-67
2021/10/24 09:40:28;;;;;;;19.02;8.73;;;;;;;;;;5074785;28;20063;-67
2021/10/24 09:43:13;;;;;;;22.77;9.40;;;;;;;;;;5074684;28;20024;-69
2021/10/24 09:45:40;;;;;;;20.52;7.40;;;;;;;;;;5074569;28;20393;-66
2021/10/24 09:48:07;;;;;;;17.05;8.43;;;;;;;;;;5074497;28;20031;-64
2021/10/24 09:50:39;;;;;;;17.05;7.68;;;;;;;;;;5074698;28;20123;-66
2021/10/24 09:53:12;;;;;;;15.70;7.70;;;;;;;;;;5074534;28;20438;-65
2021/10/24 09:55:39;;;;;;;16.70;7.50;;;;;;;;;;5074369;28;20063;-65
2021/10/24 09:58:07;;;;;;;17.52;7.68;;;;;;;;;;5074606;28;20047;-66
2021/10/24 10:00:33;;;;;;;19.10;8.65;;;;;;;;;;5074294;28;20089;-65
2021/10/24 10:03:00;;;;;;;20.40;9.32;;;;;;;;;;5074330;28;20055;-65
2021/10/24 10:05:26;;;;;;;16.38;8.13;;;;;;;;;;5073434;28;20057;-64
2021/10/24 10:07:52;;;;;;;17.83;8.52;;;;;;;;;;5073621;28;20020;-65
2021/10/24 10:10:18;;;;;;;21.60;8.43;;;;;;;;;;5092416;28;20020;-65
2021/10/24 10:12:49;;;;;;;17.83;7.82;;;;;;;;;;5086900;28;20110;-66
2021/10/24 10:15:15;;;;;;;21.73;8.80;;;;;;;;;;5064573;28;20747;-66
2021/10/24 10:17:41;;;;;;;16.05;8.38;;;;;;;;;;5080957;28;20040;-66
2021/10/24 10:20:20;;;;;;;16.73;8.32;;;;;;;;;;5063164;28;20028;-67
2021/10/24 10:22:59;;;;;;;16.23;8.65;;;;;;;;;;5066963;28;20020;-65
2021/10/24 10:25:28;;;;;;;17.90;8.85;;;;;;;;;;5083400;28;20031;-66
2021/10/24 10:27:55;;;;;;;16.10;8.13;;;;;;;;;;4725407;28;10000253;-66
2021/10/24 10:30:40;;;;;;;18.05;8.70;;;;;;;;;;5060561;28;20039;-67
2021/10/24 10:33:26;;;;;;;17.15;9.15;;;;;;;;;;5078117;28;20020;-65
2021/10/24 10:35:53;;;;;;;20.02;9.23;;;;;;;;;;5061635;28;20136;-65
2021/10/24 10:38:38;;;;;;;20.48;9.23;;;;;;;;;;5079372;28;20060;-66
2021/10/24 10:41:05;;;;;;;20.05;9.48;;;;;;;;;;5076174;28;20074;-65
2021/10/24 10:43:32;;;;;;;17.98;9.35;;;;;;;;;;5060006;28;20020;-65
2021/10/24 10:45:59;;;;;;;17.63;8.95;;;;;;;;;;5059553;28;20034;-64
2021/10/24 10:48:42;;;;;;;17.70;8.90;;;;;;;;;;5060670;28;20025;-66
2021/10/24 10:51:23;;;;;;;17.83;9.82;;;;;;;;;;5061340;28;20017;-66
2021/10/24 10:53:49;;;;;;;17.90;9.45;;;;;;;;;;5061112;28;20484;-66
2021/10/24 10:56:20;;;;;;;20.65;10.35;;;;;;;;;;4706773;28;9999601;-66
2021/10/24 10:58:47;;;;;;;17.73;10.02;;;;;;;;;;5075661;28;20017;-66
2021/10/24 11:01:30;;;;;;;17.20;10.05;;;;;;;;;;5079966;28;20032;-66
2021/10/24 11:04:12;;;;;;;17.17;10.18;;;;;;;;;;5077023;28;20017;-65
2021/10/24 11:06:38;;;;;;;18.30;11.25;;;6.10;99.90;;;;;;5077517;28;20020;-65
2021/10/24 11:09:04;;;;;;;17.70;11.70;;;;;;;;;;5072852;28;20080;-68
2021/10/24 11:11:45;;;;;;;19.02;11.77;;;;;;;;;;5073639;28;20024;-66
2021/10/24 11:14:17;;;;;;;19.70;11.50;;;;;;;;;;5090236;28;20035;-65
2021/10/24 11:16:53;;;;;;;18.20;11.02;;;;;;;;;;5071752;28;20111;-66
2021/10/24 11:19:38;;;;;;;17.73;11.02;;;;;;;;;;5088676;28;20418;-63
2021/10/24 11:22:18;;;;;;;18.85;11.85;;;;;;;;;;5092798;28;20073;-65
2021/10/24 11:24:51;;;;;;;17.02;11.88;;;;;;;;;;5092744;28;20020;-64
2021/10/24 11:27:17;;;;;;;17.40;11.63;;;;;;;;;;5092607;28;20023;-65
2021/10/24 11:29:49;;;;;;;15.57;10.85;;;;;;;;;;4724479;28;9999898;-65
2021/10/24 11:32:24;;;;;;;16.98;11.65;;;;;;;;;;5076946;28;20016;-65
2021/10/24 11:34:56;;;;;;;16.33;11.27;;;;;;;;;;5066073;28;20047;-66
2021/10/24 11:37:35;;;;;;;17.80;11.77;;;;;;;;;;5095267;28;20023;-65
2021/10/24 11:40:02;;;;;;;15.80;11.10;;;;;;;;;;5076298;28;20020;-65
2021/10/24 11:42:30;;;;;;;18.05;11.68;;;;;;;;;;5076721;28;20032;-66
2021/10/24 11:44:56;;;;;;;17.75;12.25;;;;;;;;;;5077140;28;20028;-65
2021/10/24 11:47:22;;;;;;;18.10;13.05;;;;;;;;;;5076461;28;20028;-66
2021/10/24 11:49:51;;;;;;;16.67;11.93;;;18.00;99.90;;;;;;5076842;28;20028;-66
2021/10/24 11:52:25;;;;;;;18.58;12.27;;;;;;;;;;5076714;28;20028;-65
2021/10/24 11:55:09;;;;;;;18.50;12.20;;;;;;;;;;5076694;28;20028;-66
2021/10/24 12:02:43;;;;;;;;;;;;;;;;;;5095392;28;20039;-67
2021/10/24 12:05:12;;;;;;;17.98;11.93;;;;;;;;;;5076012;28;19995;-66
2021/10/24 12:07:49;;;;;;;19.85;12.73;;;;;;;;;;5075767;28;20024;-67
2021/10/24 12:10:15;;;;;;;18.48;12.02;;;;;;;;;;5076386;28;20100;-67
2021/10/24 12:12:41;;;;;;;20.20;11.80;;;;;;;;;;5075930;28;20031;-66
2021/10/24 12:15:13;;;;;;;16.83;11.40;;;;;;;;;;5075708;28;20028;-66
2021/10/24 12:17:40;;;;;;;19.42;11.57;;;;;;;;;;5075386;28;20030;-65
2021/10/24 12:20:06;;;;;;;17.98;12.48;;;;;;;;;;5075986;28;20024;-65
2021/10/24 12:22:43;;;;;;;17.10;12.35;;;;;;;;;;5075885;28;20028;-66
2021/10/24 12:25:12;;;;;;;18.67;12.23;;;;;;;;;;5094206;28;20024;-65
2021/10/24 12:27:41;;;;;;;18.60;12.02;;;;;;;;;;5075469;28;20170;-65
2021/10/24 12:30:08;;;;;;;16.90;11.60;;;;;;;;;;5076478;28;20024;-65
2021/10/24 12:32:36;;;;;;;17.40;11.93;;;;;;;;;;5075601;28;20027;-65
2021/10/24 12:35:09;;;;;;;16.67;11.80;;;;;;;;;;5075619;28;20123;-65
2021/10/24 12:37:37;;;;;;;19.15;12.05;;;;;;;;;;5075254;28;20024;-65
2021/10/24 12:40:17;;;;;;;18.20;11.65;;;;;;;;;;5075644;28;20047;-65
2021/10/24 12:42:44;;;;;;;18.58;11.27;;;;;;;;;;5075056;28;20024;-64
2021/10/24 12:45:17;;;;;;;16.38;11.60;;;;;;;;;;5075485;28;20024;-65
2021/10/24 12:47:53;;;;;;;17.08;11.82;;;;;;;;;;5075032;28;20556;-66
2021/10/24 12:50:27;;;;;;;16.90;12.55;;;;;;;;;;5075433;28;20024;-65
2021/10/24 12:53:01;;;;;;;17.63;11.93;;;21.30;93.70;;;;;;5075494;28;20024;-66
2021/10/24 12:55:27;;;;;;;19.08;12.07;;;;;;;;;;5075474;28;20028;-65
2021/10/24 12:57:53;;;;;;;16.65;12.52;;;;;;;;;;5074936;28;20028;-65
2021/10/24 13:00:19;;;;;;;18.55;11.90;;;;;;;;;;5075052;28;20349;-66
2021/10/24 13:02:45;;;;;;;17.33;12.20;;;;;;;;;;5074714;28;20080;-65
2021/10/24 13:05:11;;;;;;;17.65;12.43;;;;;;;;;;5074783;28;20445;-66
2021/10/24 13:07:39;;;;;;;17.88;12.07;;;26.30;83.40;;;;;;5074997;28;20020;-66
2021/10/24 13:10:05;;;;;;;17.45;11.70;;;;;;;;;;5093315;28;20081;-69
2021/10/24 13:12:31;;;;;;;18.05;11.82;;;;;;;;;;5093134;28;20056;-68
2021/10/24 13:14:56;;;;;;;16.23;11.75;;;26.90;83.40;;;;;;5079123;28;20395;-68
2021/10/24 13:17:22;;;;;;;17.77;11.52;;;25.40;80.00;;;;;;5054237;28;20024;-67
2021/10/24 13:19:47;;;;;;;16.58;11.18;;;26.40;84.00;;;;;;5073062;28;20016;-66
2021/10/24 13:24:57;;;;;;;16.13;11.40;;;27.70;78.10;;;;;;5072822;28;20112;-67
2021/10/24 13:27:23;;;;;;;18.10;11.32;;;26.00;80.40;;;;;;5072395;28;20171;-66
2021/10/24 13:29:48;;;;;;;17.77;11.80;;;26.80;79.60;;;;;;5054510;28;20146;-66
2021/10/24 13:32:14;;;;;;;16.65;11.45;;;26.30;77.80;;;;;;5072322;28;20372;-66
2021/10/24 13:34:40;;;;;;;18.02;11.35;;;27.30;78.70;;;;;;5054708;28;20044;-67
2021/10/24 13:37:05;;;;;;;16.55;11.25;;;26.40;78.90;;;;;;5053990;28;20417;-67
2021/10/24 13:39:31;;;;;;;18.25;11.23;;;25.20;77.40;;;;;;5063207;28;20122;-67
2021/10/24 13:41:57;;;;;;;19.45;11.20;;;25.30;78.60;;;;;;5071078;28;20059;-67
2021/10/24 13:44:22;;;;;;;16.08;10.63;;;26.40;80.10;;;;;;5081047;28;20020;-67
2021/10/24 13:46:48;;;;;;;17.23;11.05;;;26.00;77.30;;;;;;5082048;28;20055;-66
2021/10/24 13:49:14;;;;;;;16.50;11.07;;;26.00;81.40;;;;;;5080680;28;20028;-66
2021/10/24 13:51:40;;;;;;;16.48;10.68;;;26.30;77.00;;;;;;5081412;28;20036;-66
2021/10/24 13:54:06;;;;;;;16.92;10.98;;;26.30;77.20;;;;;;5072878;28;20020;-67
2021/10/24 13:56:31;;;;;;;17.58;10.80;;;26.50;75.30;;;;;;5072505;28;20025;-67
2021/10/24 13:58:57;;;;;;;16.35;11.23;;;26.10;77.90;;;;;;5070325;28;20042;-67
2021/10/24 14:01:23;;;;;;;16.52;10.98;;;26.40;77.80;;;;;;5073160;28;20115;-66
2021/10/24 14:03:58;;;;;;;19.65;11.30;;;27.70;77.30;;;;;;5068045;28;20610;-68
2021/10/24 14:06:26;;;;;;;17.38;11.20;;;27.40;77.30;;;;;;5054279;28;20111;-66
2021/10/24 14:08:53;;;;;;;15.88;11.50;;;26.50;75.00;;;;;;5054393;28;20025;-66
2021/10/24 14:11:20;;;;;;;17.50;11.40;;;;;;;;;;5057731;28;20176;-69
2021/10/24 14:13:47;;;;;;;17.67;11.40;;;26.00;74.50;;;;;;5074758;28;20032;-66
2021/10/24 14:16:13;;;;;;;17.38;11.52;;;25.60;79.00;;;;;;5074036;28;20506;-66
2021/10/24 14:18:40;;;;;;;17.20;11.43;;;26.50;76.30;;;;;;5074251;28;20031;-67